sensor_id;sensor_type;location;lat;lon;timestamp;temperature;humidity
18043;DHT22;9146;48.074;11.968;2024-03-22T00:02:08;5.20;99.90
18043;DHT22;9146;48.074;11.968;2024-03-22T00:04:34;5.20;99.90
18043;DHT22;9146;48.074;11.968;2024-03-22T00:07:01;5.10;99.90
18043;DHT22;9146;48.074;11.968;2024-03-22T00:09:28;5.00;99.90
18043;DHT22;9146;48.074;11.968;2024-03-22T00:11:55;4.90;99.90
18043;DHT22;9146;48.074;11.968;2024-03-22T00:14:21;4.90;99.90
18043;DHT22;9146;48.074;11.968;2024-03-22T00:16:49;4.80;99.90
18043;DHT22;9146;48.074;11.968;2024-03-22T00:19:15;4.70;99.90
18043;DHT22;9146;48.074;11.968;2024-03-22T00:21:42;4.70;99.90
18043;DHT22;9146;48.074;11.968;2024-03-22T00:24:08;4.70;99.90
18043;DHT22;9146;48.074;11.968;2024-03-22T00:26:35;4.70;99.90
18043;DHT22;9146;48.074;11.968;2024-03-22T00:29:01;4.70;99.90
18043;DHT22;9146;48.074;11.968;2024-03-22T00:31:27;4.60;99.90
18043;DHT22;9146;48.074;11.968;2024-03-22T00:33:54;4.60;99.90
18043;DHT22;9146;48.074;11.968;2024-03-22T00:36:21;4.60;99.90
18043;DHT22;9146;48.074;11.968;2024-03-22T00:38:47;4.50;99.90
18043;DHT22;9146;48.074;11.968;2024-03-22T00:41:14;4.50;99.90
18043;DHT22;9146;48.074;11.968;2024-03-22T00:43:40;4.50;99.90
18043;DHT22;9146;48.074;11.968;2024-03-22T00:46:07;4.50;99.90
18043;DHT22;9146;48.074;11.968;2024-03-22T00:48:33;4.50;99.90
18043;DHT22;9146;48.074;11.968;2024-03-22T00:51:02;4.40;99.90
18043;DHT22;9146;48.074;11.968;2024-03-22T00:53:29;4.40;99.90
18043;DHT22;9146;48.074;11.968;2024-03-22T00:55:56;4.40;99.90
18043;DHT22;9146;48.074;11.968;2024-03-22T00:58:25;4.40;99.90
18043;DHT22;9146;48.074;11.968;2024-03-22T01:00:52;4.40;99.90
18043;DHT22;9146;48.074;11.968;2024-03-22T01:03:18;4.40;99.90
18043;DHT22;9146;48.074;11.968;2024-03-22T01:05:44;4.30;99.90
18043;DHT22;9146;48.074;11.968;2024-03-22T01:08:12;4.30;99.90
18043;DHT22;9146;48.074;11.968;2024-03-22T01:10:39;4.30;99.90
18043;DHT22;9146;48.074;11.968;2024-03-22T01:13:05;4.20;99.90
18043;DHT22;9146;48.074;11.968;2024-03-22T01:15:32;4.20;99.90
18043;DHT22;9146;48.074;11.968;2024-03-22T01:17:58;4.20;99.90
18043;DHT22;9146;48.074;11.968;2024-03-22T01:20:25;4.20;99.90
18043;DHT22;9146;48.074;11.968;2024-03-22T01:22:51;4.10;99.90
18043;DHT22;9146;48.074;11.968;2024-03-22T01:25:19;4.10;99.90
18043;DHT22;9146;48.074;11.968;2024-03-22T01:27:45;4.10;99.90
18043;DHT22;9146;48.074;11.968;2024-03-22T01:30:12;4.00;99.90
18043;DHT22;9146;48.074;11.968;2024-03-22T01:32:38;4.00;99.90
18043;DHT22;9146;48.074;11.968;2024-03-22T01:35:05;4.00;99.90
18043;DHT22;9146;48.074;11.968;2024-03-22T01:37:31;4.00;99.90
18043;DHT22;9146;48.074;11.968;2024-03-22T01:40:00;4.00;99.90
18043;DHT22;9146;48.074;11.968;2024-03-22T01:42:28;4.10;99.90
18043;DHT22;9146;48.074;11.968;2024-03-22T01:44:54;4.10;99.90
18043;DHT22;9146;48.074;11.968;2024-03-22T01:47:20;4.20;99.90
18043;DHT22;9146;48.074;11.968;2024-03-22T01:49:48;4.10;99.90
18043;DHT22;9146;48.074;11.968;2024-03-22T01:52:14;4.10;99.90
18043;DHT22;9146;48.074;11.968;2024-03-22T01:54:41;4.10;99.90
18043;DHT22;9146;48.074;11.968;2024-03-22T01:57:08;4.10;99.90
18043;DHT22;9146;48.074;11.968;2024-03-22T01:59:37;4.10;99.90
18043;DHT22;9146;48.074;11.968;2024-03-22T02:02:03;4.10;99.90
18043;DHT22;9146;48.074;11.968;2024-03-22T02:04:30;4.00;99.90
18043;DHT22;9146;48.074;11.968;2024-03-22T02:06:56;4.00;99.90
18043;DHT22;9146;48.074;11.968;2024-03-22T02:09:23;4.00;99.90
18043;DHT22;9146;48.074;11.968;2024-03-22T02:11:49;4.00;99.90
18043;DHT22;9146;48.074;11.968;2024-03-22T02:14:16;4.00;99.90
18043;DHT22;9146;48.074;11.968;2024-03-22T02:16:43;4.00;99.90
18043;DHT22;9146;48.074;11.968;2024-03-22T02:19:11;4.00;99.90
18043;DHT22;9146;48.074;11.968;2024-03-22T02:21:36;3.90;99.90
18043;DHT22;9146;48.074;11.968;2024-03-22T02:24:05;3.90;99.90
18043;DHT22;9146;48.074;11.968;2024-03-22T02:26:31;3.90;99.90
18043;DHT22;9146;48.074;11.968;2024-03-22T02:28:58;3.90;99.90
18043;DHT22;9146;48.074;11.968;2024-03-22T02:31:24;3.90;99.90
18043;DHT22;9146;48.074;11.968;2024-03-22T02:33:52;4.00;99.90
18043;DHT22;9146;48.074;11.968;2024-03-22T02:36:18;3.90;99.90
18043;DHT22;9146;48.074;11.968;2024-03-22T02:38:47;3.90;99.90
18043;DHT22;9146;48.074;11.968;2024-03-22T02:41:14;3.80;99.90
18043;DHT22;9146;48.074;11.968;2024-03-22T02:43:41;3.80;99.90
18043;DHT22;9146;48.074;11.968;2024-03-22T02:46:07;3.70;99.90
18043;DHT22;9146;48.074;11.968;2024-03-22T02:48:34;3.70;99.90
18043;DHT22;9146;48.074;11.968;2024-03-22T02:51:00;3.70;99.90
18043;DHT22;9146;48.074;11.968;2024-03-22T02:53:27;3.70;99.90
18043;DHT22;9146;48.074;11.968;2024-03-22T02:55:53;3.70;99.90
18043;DHT22;9146;48.074;11.968;2024-03-22T02:58:21;3.70;99.90
18043;DHT22;9146;48.074;11.968;2024-03-22T03:00:47;3.70;99.90
18043;DHT22;9146;48.074;11.968;2024-03-22T03:03:14;3.70;99.90
18043;DHT22;9146;48.074;11.968;2024-03-22T03:05:41;3.60;99.90
18043;DHT22;9146;48.074;11.968;2024-03-22T03:08:08;3.60;99.90
18043;DHT22;9146;48.074;11.968;2024-03-22T03:10:35;3.50;99.90
18043;DHT22;9146;48.074;11.968;2024-03-22T03:13:02;3.50;99.90
18043;DHT22;9146;48.074;11.968;2024-03-22T03:15:29;3.50;99.90
18043;DHT22;9146;48.074;11.968;2024-03-22T03:17:56;3.40;99.90
18043;DHT22;9146;48.074;11.968;2024-03-22T03:20:22;3.40;99.90
18043;DHT22;9146;48.074;11.968;2024-03-22T03:22:49;3.40;99.90
18043;DHT22;9146;48.074;11.968;2024-03-22T03:25:15;3.40;99.90
18043;DHT22;9146;48.074;11.968;2024-03-22T03:27:42;3.30;99.90
18043;DHT22;9146;48.074;11.968;2024-03-22T03:30:08;3.30;99.90
18043;DHT22;9146;48.074;11.968;2024-03-22T03:32:36;3.30;99.90
18043;DHT22;9146;48.074;11.968;2024-03-22T03:35:02;3.30;99.90
18043;DHT22;9146;48.074;11.968;2024-03-22T03:37:30;3.30;99.90
18043;DHT22;9146;48.074;11.968;2024-03-22T03:39:56;3.30;99.90
18043;DHT22;9146;48.074;11.968;2024-03-22T03:42:23;3.20;99.90
18043;DHT22;9146;48.074;11.968;2024-03-22T03:44:49;3.20;99.90
18043;DHT22;9146;48.074;11.968;2024-03-22T03:47:16;3.20;99.90
18043;DHT22;9146;48.074;11.968;2024-03-22T03:49:45;3.20;99.90
18043;DHT22;9146;48.074;11.968;2024-03-22T03:52:12;3.20;99.90
18043;DHT22;9146;48.074;11.968;2024-03-22T03:54:38;3.20;99.90
18043;DHT22;9146;48.074;11.968;2024-03-22T03:57:05;3.20;99.90
18043;DHT22;9146;48.074;11.968;2024-03-22T03:59:31;3.20;99.90
18043;DHT22;9146;48.074;11.968;2024-03-22T04:01:57;3.20;99.90
18043;DHT22;9146;48.074;11.968;2024-03-22T04:04:23;3.20;99.90
18043;DHT22;9146;48.074;11.968;2024-03-22T04:06:51;3.20;99.90
18043;DHT22;9146;48.074;11.968;2024-03-22T04:09:17;3.30;99.90
18043;DHT22;9146;48.074;11.968;2024-03-22T04:11:44;3.30;99.90
18043;DHT22;9146;48.074;11.968;2024-03-22T04:14:10;3.30;99.90
18043;DHT22;9146;48.074;11.968;2024-03-22T04:16:37;3.20;99.90
18043;DHT22;9146;48.074;11.968;2024-03-22T04:19:03;3.20;99.90
18043;DHT22;9146;48.074;11.968;2024-03-22T04:21:30;3.20;99.90
18043;DHT22;9146;48.074;11.968;2024-03-22T04:23:57;3.20;99.90
18043;DHT22;9146;48.074;11.968;2024-03-22T04:26:24;3.10;99.90
18043;DHT22;9146;48.074;11.968;2024-03-22T04:28:50;3.10;99.90
18043;DHT22;9146;48.074;11.968;2024-03-22T04:31:17;3.10;99.90
18043;DHT22;9146;48.074;11.968;2024-03-22T04:33:43;3.10;99.90
18043;DHT22;9146;48.074;11.968;2024-03-22T04:36:10;3.10;99.90
18043;DHT22;9146;48.074;11.968;2024-03-22T04:38:35;3.10;99.90
18043;DHT22;9146;48.074;11.968;2024-03-22T04:41:04;3.00;99.90
18043;DHT22;9146;48.074;11.968;2024-03-22T04:43:31;3.00;99.90
18043;DHT22;9146;48.074;11.968;2024-03-22T04:45:57;3.00;99.90
18043;DHT22;9146;48.074;11.968;2024-03-22T04:48:23;2.90;99.90
18043;DHT22;9146;48.074;11.968;2024-03-22T04:50:50;2.90;99.90
18043;DHT22;9146;48.074;11.968;2024-03-22T04:53:18;2.90;99.90
18043;DHT22;9146;48.074;11.968;2024-03-22T04:55:45;2.90;99.90
18043;DHT22;9146;48.074;11.968;2024-03-22T04:58:15;2.90;99.90
18043;DHT22;9146;48.074;11.968;2024-03-22T05:00:41;2.90;99.90
18043;DHT22;9146;48.074;11.968;2024-03-22T05:03:08;2.90;99.90
18043;DHT22;9146;48.074;11.968;2024-03-22T05:05:35;3.00;99.90
18043;DHT22;9146;48.074;11.968;2024-03-22T05:08:02;3.00;99.90
18043;DHT22;9146;48.074;11.968;2024-03-22T05:10:29;3.00;99.90
18043;DHT22;9146;48.074;11.968;2024-03-22T05:12:56;3.00;99.90
18043;DHT22;9146;48.074;11.968;2024-03-22T05:15:23;3.00;99.90
18043;DHT22;9146;48.074;11.968;2024-03-22T05:17:52;3.00;99.90
18043;DHT22;9146;48.074;11.968;2024-03-22T05:20:20;3.00;99.90
18043;DHT22;9146;48.074;11.968;2024-03-22T05:22:47;3.10;99.90
18043;DHT22;9146;48.074;11.968;2024-03-22T05:25:14;3.10;99.90
18043;DHT22;9146;48.074;11.968;2024-03-22T05:27:41;3.10;99.90
18043;DHT22;9146;48.074;11.968;2024-03-22T05:30:08;3.20;99.90
18043;DHT22;9146;48.074;11.968;2024-03-22T05:32:37;3.20;99.90
18043;DHT22;9146;48.074;11.968;2024-03-22T05:35:04;3.30;99.90
18043;DHT22;9146;48.074;11.968;2024-03-22T05:37:31;3.30;99.90
18043;DHT22;9146;48.074;11.968;2024-03-22T05:39:57;3.40;99.90
18043;DHT22;9146;48.074;11.968;2024-03-22T05:42:24;3.50;99.90
18043;DHT22;9146;48.074;11.968;2024-03-22T05:44:50;3.60;99.90
18043;DHT22;9146;48.074;11.968;2024-03-22T05:47:18;3.70;99.90
18043;DHT22;9146;48.074;11.968;2024-03-22T05:49:46;3.80;99.90
18043;DHT22;9146;48.074;11.968;2024-03-22T05:52:13;4.00;99.90
18043;DHT22;9146;48.074;11.968;2024-03-22T05:54:38;4.10;99.90
18043;DHT22;9146;48.074;11.968;2024-03-22T05:57:06;4.30;99.90
18043;DHT22;9146;48.074;11.968;2024-03-22T05:59:32;4.50;99.90
18043;DHT22;9146;48.074;11.968;2024-03-22T06:02:00;4.60;99.90
18043;DHT22;9146;48.074;11.968;2024-03-22T06:04:26;4.80;99.90
18043;DHT22;9146;48.074;11.968;2024-03-22T06:06:54;4.90;99.90
18043;DHT22;9146;48.074;11.968;2024-03-22T06:09:20;5.00;99.90
18043;DHT22;9146;48.074;11.968;2024-03-22T06:11:59;5.00;99.90
18043;DHT22;9146;48.074;11.968;2024-03-22T06:14:25;5.10;99.90
18043;DHT22;9146;48.074;11.968;2024-03-22T06:16:52;5.20;99.90
18043;DHT22;9146;48.074;11.968;2024-03-22T06:19:18;5.20;99.90
18043;DHT22;9146;48.074;11.968;2024-03-22T06:21:45;5.30;99.90
18043;DHT22;9146;48.074;11.968;2024-03-22T06:24:12;5.30;99.90
18043;DHT22;9146;48.074;11.968;2024-03-22T06:26:39;5.40;99.90
18043;DHT22;9146;48.074;11.968;2024-03-22T06:29:05;5.50;99.90
18043;DHT22;9146;48.074;11.968;2024-03-22T06:31:32;5.50;99.90
18043;DHT22;9146;48.074;11.968;2024-03-22T06:33:57;5.60;99.90
18043;DHT22;9146;48.074;11.968;2024-03-22T06:36:28;5.60;99.90
18043;DHT22;9146;48.074;11.968;2024-03-22T06:38:53;5.60;99.90
18043;DHT22;9146;48.074;11.968;2024-03-22T06:41:22;5.60;99.90
18043;DHT22;9146;48.074;11.968;2024-03-22T06:43:48;5.60;99.90
18043;DHT22;9146;48.074;11.968;2024-03-22T06:46:15;5.60;99.90
18043;DHT22;9146;48.074;11.968;2024-03-22T06:48:41;5.60;99.90
18043;DHT22;9146;48.074;11.968;2024-03-22T06:51:07;5.60;99.90
18043;DHT22;9146;48.074;11.968;2024-03-22T06:53:33;5.50;99.90
18043;DHT22;9146;48.074;11.968;2024-03-22T06:56:00;5.50;99.90
18043;DHT22;9146;48.074;11.968;2024-03-22T06:58:29;5.50;99.90
18043;DHT22;9146;48.074;11.968;2024-03-22T07:00:56;5.50;99.90
18043;DHT22;9146;48.074;11.968;2024-03-22T07:03:22;5.40;99.90
18043;DHT22;9146;48.074;11.968;2024-03-22T07:05:50;5.50;99.90
18043;DHT22;9146;48.074;11.968;2024-03-22T07:08:15;5.40;99.90
18043;DHT22;9146;48.074;11.968;2024-03-22T07:10:42;5.50;99.90
18043;DHT22;9146;48.074;11.968;2024-03-22T07:13:09;5.50;99.90
18043;DHT22;9146;48.074;11.968;2024-03-22T07:15:37;5.60;99.90
18043;DHT22;9146;48.074;11.968;2024-03-22T07:18:04;5.60;99.90
18043;DHT22;9146;48.074;11.968;2024-03-22T07:20:31;5.70;99.90
18043;DHT22;9146;48.074;11.968;2024-03-22T07:22:57;5.80;99.90
18043;DHT22;9146;48.074;11.968;2024-03-22T07:25:24;6.00;99.90
18043;DHT22;9146;48.074;11.968;2024-03-22T07:27:50;6.10;99.90
18043;DHT22;9146;48.074;11.968;2024-03-22T07:30:17;6.30;99.90
18043;DHT22;9146;48.074;11.968;2024-03-22T07:32:45;6.50;99.90
18043;DHT22;9146;48.074;11.968;2024-03-22T07:35:13;6.60;99.90
18043;DHT22;9146;48.074;11.968;2024-03-22T07:37:38;6.80;99.90
18043;DHT22;9146;48.074;11.968;2024-03-22T07:40:06;7.00;99.90
18043;DHT22;9146;48.074;11.968;2024-03-22T07:42:32;7.20;99.90
18043;DHT22;9146;48.074;11.968;2024-03-22T07:45:00;7.50;99.90
18043;DHT22;9146;48.074;11.968;2024-03-22T07:47:26;7.70;99.90
18043;DHT22;9146;48.074;11.968;2024-03-22T07:49:54;8.00;99.90
18043;DHT22;9146;48.074;11.968;2024-03-22T07:52:20;8.30;99.90
18043;DHT22;9146;48.074;11.968;2024-03-22T07:54:47;8.50;99.90
18043;DHT22;9146;48.074;11.968;2024-03-22T07:57:13;8.70;99.90
18043;DHT22;9146;48.074;11.968;2024-03-22T07:59:40;9.00;99.90
18043;DHT22;9146;48.074;11.968;2024-03-22T08:02:05;9.20;99.90
18043;DHT22;9146;48.074;11.968;2024-03-22T08:04:32;9.30;99.90
18043;DHT22;9146;48.074;11.968;2024-03-22T08:07:00;9.40;99.90
18043;DHT22;9146;48.074;11.968;2024-03-22T08:09:26;9.50;99.90
18043;DHT22;9146;48.074;11.968;2024-03-22T08:11:52;9.60;99.90
18043;DHT22;9146;48.074;11.968;2024-03-22T08:14:25;9.50;99.90
18043;DHT22;9146;48.074;11.968;2024-03-22T08:16:50;9.50;99.90
18043;DHT22;9146;48.074;11.968;2024-03-22T08:19:17;9.50;99.90
18043;DHT22;9146;48.074;11.968;2024-03-22T08:21:43;9.50;99.90
18043;DHT22;9146;48.074;11.968;2024-03-22T08:24:12;9.50;99.90
18043;DHT22;9146;48.074;11.968;2024-03-22T08:26:38;9.50;99.90
18043;DHT22;9146;48.074;11.968;2024-03-22T08:29:05;9.50;99.90
18043;DHT22;9146;48.074;11.968;2024-03-22T08:31:31;9.50;99.90
18043;DHT22;9146;48.074;11.968;2024-03-22T08:33:58;9.50;99.90
18043;DHT22;9146;48.074;11.968;2024-03-22T08:36:24;9.50;99.90
18043;DHT22;9146;48.074;11.968;2024-03-22T08:38:51;9.40;99.90
18043;DHT22;9146;48.074;11.968;2024-03-22T08:41:20;9.50;99.90
18043;DHT22;9146;48.074;11.968;2024-03-22T08:43:45;9.50;99.90
18043;DHT22;9146;48.074;11.968;2024-03-22T08:46:12;9.50;99.90
18043;DHT22;9146;48.074;11.968;2024-03-22T08:48:38;9.60;99.90
18043;DHT22;9146;48.074;11.968;2024-03-22T08:51:05;9.70;99.90
18043;DHT22;9146;48.074;11.968;2024-03-22T08:53:31;9.90;99.90
18043;DHT22;9146;48.074;11.968;2024-03-22T08:55:59;10.00;99.90
18043;DHT22;9146;48.074;11.968;2024-03-22T08:58:27;10.20;99.90
18043;DHT22;9146;48.074;11.968;2024-03-22T09:00:54;10.30;99.90
18043;DHT22;9146;48.074;11.968;2024-03-22T09:03:20;10.40;99.90
18043;DHT22;9146;48.074;11.968;2024-03-22T09:05:47;10.60;99.90
18043;DHT22;9146;48.074;11.968;2024-03-22T09:08:17;10.70;99.90
18043;DHT22;9146;48.074;11.968;2024-03-22T09:10:45;10.80;99.90
18043;DHT22;9146;48.074;11.968;2024-03-22T09:13:11;10.90;99.90
18043;DHT22;9146;48.074;11.968;2024-03-22T09:15:40;10.90;99.90
18043;DHT22;9146;48.074;11.968;2024-03-22T09:18:05;10.90;99.90
18043;DHT22;9146;48.074;11.968;2024-03-22T09:20:32;11.00;99.90
18043;DHT22;9146;48.074;11.968;2024-03-22T09:22:58;11.00;99.90
18043;DHT22;9146;48.074;11.968;2024-03-22T09:25:25;11.10;99.90
18043;DHT22;9146;48.074;11.968;2024-03-22T09:27:51;11.40;99.90
18043;DHT22;9146;48.074;11.968;2024-03-22T09:30:18;11.40;99.90
18043;DHT22;9146;48.074;11.968;2024-03-22T09:32:46;11.50;99.90
18043;DHT22;9146;48.074;11.968;2024-03-22T09:35:13;11.40;99.90
18043;DHT22;9146;48.074;11.968;2024-03-22T09:37:40;11.30;99.90
18043;DHT22;9146;48.074;11.968;2024-03-22T09:40:07;11.40;99.90
18043;DHT22;9146;48.074;11.968;2024-03-22T09:42:37;11.40;99.90
18043;DHT22;9146;48.074;11.968;2024-03-22T09:45:08;11.50;99.90
18043;DHT22;9146;48.074;11.968;2024-03-22T09:47:36;11.50;99.90
18043;DHT22;9146;48.074;11.968;2024-03-22T09:50:06;11.50;99.90
18043;DHT22;9146;48.074;11.968;2024-03-22T09:52:33;11.50;99.90
18043;DHT22;9146;48.074;11.968;2024-03-22T09:55:00;11.60;99.90
18043;DHT22;9146;48.074;11.968;2024-03-22T09:57:31;11.70;99.90
18043;DHT22;9146;48.074;11.968;2024-03-22T09:59:59;11.80;99.90
18043;DHT22;9146;48.074;11.968;2024-03-22T10:02:25;11.90;99.90
18043;DHT22;9146;48.074;11.968;2024-03-22T10:04:53;12.10;99.90
18043;DHT22;9146;48.074;11.968;2024-03-22T10:07:20;12.30;99.90
18043;DHT22;9146;48.074;11.968;2024-03-22T10:09:47;12.40;99.90
18043;DHT22;9146;48.074;11.968;2024-03-22T10:12:13;12.40;99.90
18043;DHT22;9146;48.074;11.968;2024-03-22T10:14:43;12.40;99.90
18043;DHT22;9146;48.074;11.968;2024-03-22T10:17:09;12.80;99.90
18043;DHT22;9146;48.074;11.968;2024-03-22T10:19:36;12.90;99.90
18043;DHT22;9146;48.074;11.968;2024-03-22T10:22:03;13.10;99.90
18043;DHT22;9146;48.074;11.968;2024-03-22T10:24:32;13.20;99.90
18043;DHT22;9146;48.074;11.968;2024-03-22T10:26:59;13.40;99.90
18043;DHT22;9146;48.074;11.968;2024-03-22T10:29:26;13.60;99.90
18043;DHT22;9146;48.074;11.968;2024-03-22T10:31:53;13.70;99.90
18043;DHT22;9146;48.074;11.968;2024-03-22T10:34:21;13.80;99.90
18043;DHT22;9146;48.074;11.968;2024-03-22T10:36:47;13.80;99.90
18043;DHT22;9146;48.074;11.968;2024-03-22T10:39:18;13.90;99.90
18043;DHT22;9146;48.074;11.968;2024-03-22T10:41:46;14.10;99.90
18043;DHT22;9146;48.074;11.968;2024-03-22T10:44:13;14.10;99.90
18043;DHT22;9146;48.074;11.968;2024-03-22T10:46:44;14.20;99.90
18043;DHT22;9146;48.074;11.968;2024-03-22T10:49:15;14.30;99.90
18043;DHT22;9146;48.074;11.968;2024-03-22T10:51:43;14.50;99.90
18043;DHT22;9146;48.074;11.968;2024-03-22T10:54:14;14.70;99.90
18043;DHT22;9146;48.074;11.968;2024-03-22T10:56:43;14.90;99.90
18043;DHT22;9146;48.074;11.968;2024-03-22T10:59:14;15.00;99.90
18043;DHT22;9146;48.074;11.968;2024-03-22T11:01:45;15.10;99.90
18043;DHT22;9146;48.074;11.968;2024-03-22T11:04:12;15.10;99.90
18043;DHT22;9146;48.074;11.968;2024-03-22T11:06:39;15.10;99.90
18043;DHT22;9146;48.074;11.968;2024-03-22T11:09:05;15.00;99.90
18043;DHT22;9146;48.074;11.968;2024-03-22T11:11:35;15.10;99.90
18043;DHT22;9146;48.074;11.968;2024-03-22T11:14:04;15.10;99.90
18043;DHT22;9146;48.074;11.968;2024-03-22T11:16:31;15.10;99.90
18043;DHT22;9146;48.074;11.968;2024-03-22T11:18:59;15.30;99.90
18043;DHT22;9146;48.074;11.968;2024-03-22T11:21:25;15.40;99.90
18043;DHT22;9146;48.074;11.968;2024-03-22T11:23:52;15.50;99.90
18043;DHT22;9146;48.074;11.968;2024-03-22T11:26:19;15.40;99.90
18043;DHT22;9146;48.074;11.968;2024-03-22T11:28:46;15.10;99.90
18043;DHT22;9146;48.074;11.968;2024-03-22T11:31:12;15.00;99.90
18043;DHT22;9146;48.074;11.968;2024-03-22T11:33:41;14.90;99.90
18043;DHT22;9146;48.074;11.968;2024-03-22T11:36:07;14.90;99.90
18043;DHT22;9146;48.074;11.968;2024-03-22T11:38:35;14.80;99.90
18043;DHT22;9146;48.074;11.968;2024-03-22T11:41:02;14.80;99.90
18043;DHT22;9146;48.074;11.968;2024-03-22T11:43:29;14.80;99.90
18043;DHT22;9146;48.074;11.968;2024-03-22T11:45:56;14.90;99.90
18043;DHT22;9146;48.074;11.968;2024-03-22T11:48:23;14.90;99.90
18043;DHT22;9146;48.074;11.968;2024-03-22T11:50:50;15.00;99.90
18043;DHT22;9146;48.074;11.968;2024-03-22T11:53:17;15.10;99.90
18043;DHT22;9146;48.074;11.968;2024-03-22T11:55:43;15.30;99.90
18043;DHT22;9146;48.074;11.968;2024-03-22T11:58:10;15.40;99.90
18043;DHT22;9146;48.074;11.968;2024-03-22T12:00:36;15.50;99.90
18043;DHT22;9146;48.074;11.968;2024-03-22T12:03:04;15.50;99.90
18043;DHT22;9146;48.074;11.968;2024-03-22T12:05:31;15.70;99.90
18043;DHT22;9146;48.074;11.968;2024-03-22T12:08:00;15.70;99.90
18043;DHT22;9146;48.074;11.968;2024-03-22T12:10:25;15.80;99.90
18043;DHT22;9146;48.074;11.968;2024-03-22T12:12:52;15.90;99.90
18043;DHT22;9146;48.074;11.968;2024-03-22T12:15:19;16.00;99.90
18043;DHT22;9146;48.074;11.968;2024-03-22T12:17:46;16.20;99.90
18043;DHT22;9146;48.074;11.968;2024-03-22T12:20:12;16.30;99.90
18043;DHT22;9146;48.074;11.968;2024-03-22T12:22:40;16.40;99.90
18043;DHT22;9146;48.074;11.968;2024-03-22T12:25:09;16.50;99.90
18043;DHT22;9146;48.074;11.968;2024-03-22T12:27:37;16.70;99.90
18043;DHT22;9146;48.074;11.968;2024-03-22T12:30:04;16.90;99.90
18043;DHT22;9146;48.074;11.968;2024-03-22T12:32:33;17.20;99.90
18043;DHT22;9146;48.074;11.968;2024-03-22T12:34:59;17.40;99.90
18043;DHT22;9146;48.074;11.968;2024-03-22T12:37:27;17.40;99.90
18043;DHT22;9146;48.074;11.968;2024-03-22T12:39:53;17.40;99.90
18043;DHT22;9146;48.074;11.968;2024-03-22T12:42:21;17.40;99.90
18043;DHT22;9146;48.074;11.968;2024-03-22T12:44:48;17.50;99.90
18043;DHT22;9146;48.074;11.968;2024-03-22T12:47:15;17.50;99.90
18043;DHT22;9146;48.074;11.968;2024-03-22T12:49:41;17.50;99.90
18043;DHT22;9146;48.074;11.968;2024-03-22T12:52:08;17.40;99.90
18043;DHT22;9146;48.074;11.968;2024-03-22T12:54:34;17.20;99.90
18043;DHT22;9146;48.074;11.968;2024-03-22T12:57:01;17.20;99.90
18043;DHT22;9146;48.074;11.968;2024-03-22T12:59:28;17.20;99.90
18043;DHT22;9146;48.074;11.968;2024-03-22T13:01:55;17.20;99.90
18043;DHT22;9146;48.074;11.968;2024-03-22T13:04:20;17.30;99.90
18043;DHT22;9146;48.074;11.968;2024-03-22T13:06:48;17.30;99.90
18043;DHT22;9146;48.074;11.968;2024-03-22T13:09:14;17.40;99.90
18043;DHT22;9146;48.074;11.968;2024-03-22T13:11:41;17.60;99.90
18043;DHT22;9146;48.074;11.968;2024-03-22T13:14:07;17.70;99.90
18043;DHT22;9146;48.074;11.968;2024-03-22T13:16:36;17.80;99.90
18043;DHT22;9146;48.074;11.968;2024-03-22T13:19:02;17.90;99.90
18043;DHT22;9146;48.074;11.968;2024-03-22T13:21:29;17.80;99.90
18043;DHT22;9146;48.074;11.968;2024-03-22T13:23:56;17.80;99.90
18043;DHT22;9146;48.074;11.968;2024-03-22T13:26:23;17.80;99.90
18043;DHT22;9146;48.074;11.968;2024-03-22T13:28:49;17.70;99.90
18043;DHT22;9146;48.074;11.968;2024-03-22T13:31:17;17.60;99.90
18043;DHT22;9146;48.074;11.968;2024-03-22T13:33:44;17.50;99.90
18043;DHT22;9146;48.074;11.968;2024-03-22T13:36:12;17.40;99.90
18043;DHT22;9146;48.074;11.968;2024-03-22T13:38:38;17.40;99.90
18043;DHT22;9146;48.074;11.968;2024-03-22T13:41:05;17.40;99.90
18043;DHT22;9146;48.074;11.968;2024-03-22T13:43:31;17.30;99.90
18043;DHT22;9146;48.074;11.968;2024-03-22T13:46:00;17.40;99.90
18043;DHT22;9146;48.074;11.968;2024-03-22T13:48:26;17.40;99.90
18043;DHT22;9146;48.074;11.968;2024-03-22T13:50:55;17.40;99.90
18043;DHT22;9146;48.074;11.968;2024-03-22T13:53:21;17.40;99.90
18043;DHT22;9146;48.074;11.968;2024-03-22T13:55:48;17.40;99.90
18043;DHT22;9146;48.074;11.968;2024-03-22T13:58:14;17.50;99.90
18043;DHT22;9146;48.074;11.968;2024-03-22T14:00:41;17.50;99.90
18043;DHT22;9146;48.074;11.968;2024-03-22T14:03:07;17.50;99.90
18043;DHT22;9146;48.074;11.968;2024-03-22T14:05:34;17.50;99.90
18043;DHT22;9146;48.074;11.968;2024-03-22T14:08:02;17.50;99.90
18043;DHT22;9146;48.074;11.968;2024-03-22T14:10:29;17.50;99.90
18043;DHT22;9146;48.074;11.968;2024-03-22T14:12:57;17.60;99.90
18043;DHT22;9146;48.074;11.968;2024-03-22T14:15:24;17.50;99.90
18043;DHT22;9146;48.074;11.968;2024-03-22T14:17:50;17.40;99.90
18043;DHT22;9146;48.074;11.968;2024-03-22T14:20:17;17.40;99.90
18043;DHT22;9146;48.074;11.968;2024-03-22T14:22:44;17.40;99.90
18043;DHT22;9146;48.074;11.968;2024-03-22T14:25:14;17.30;99.90
18043;DHT22;9146;48.074;11.968;2024-03-22T14:27:39;17.30;99.90
18043;DHT22;9146;48.074;11.968;2024-03-22T14:30:10;17.10;99.90
18043;DHT22;9146;48.074;11.968;2024-03-22T14:32:38;17.10;99.90
18043;DHT22;9146;48.074;11.968;2024-03-22T14:35:06;17.10;99.90
18043;DHT22;9146;48.074;11.968;2024-03-22T14:37:32;17.10;99.90
18043;DHT22;9146;48.074;11.968;2024-03-22T14:39:59;17.10;99.90
18043;DHT22;9146;48.074;11.968;2024-03-22T14:42:26;17.00;99.90
18043;DHT22;9146;48.074;11.968;2024-03-22T14:44:53;17.00;99.90
18043;DHT22;9146;48.074;11.968;2024-03-22T14:47:21;16.90;99.90
18043;DHT22;9146;48.074;11.968;2024-03-22T14:49:49;16.90;99.90
18043;DHT22;9146;48.074;11.968;2024-03-22T14:52:15;17.00;99.90
18043;DHT22;9146;48.074;11.968;2024-03-22T14:54:41;17.00;99.90
18043;DHT22;9146;48.074;11.968;2024-03-22T14:57:07;16.90;99.90
18043;DHT22;9146;48.074;11.968;2024-03-22T14:59:37;16.90;99.90
18043;DHT22;9146;48.074;11.968;2024-03-22T15:02:04;16.80;99.90
18043;DHT22;9146;48.074;11.968;2024-03-22T15:04:30;16.80;99.90
18043;DHT22;9146;48.074;11.968;2024-03-22T15:06:56;16.70;99.90
18043;DHT22;9146;48.074;11.968;2024-03-22T15:09:23;16.80;99.90
18043;DHT22;9146;48.074;11.968;2024-03-22T15:11:50;16.80;99.90
18043;DHT22;9146;48.074;11.968;2024-03-22T15:14:17;16.80;99.90
18043;DHT22;9146;48.074;11.968;2024-03-22T15:16:44;16.80;99.90
18043;DHT22;9146;48.074;11.968;2024-03-22T15:19:11;16.90;99.90
18043;DHT22;9146;48.074;11.968;2024-03-22T15:21:37;16.90;99.90
18043;DHT22;9146;48.074;11.968;2024-03-22T15:24:04;16.90;99.90
18043;DHT22;9146;48.074;11.968;2024-03-22T15:26:31;16.90;99.90
18043;DHT22;9146;48.074;11.968;2024-03-22T15:28:58;16.90;99.90
18043;DHT22;9146;48.074;11.968;2024-03-22T15:31:24;16.90;99.90
18043;DHT22;9146;48.074;11.968;2024-03-22T15:33:52;16.90;99.90
18043;DHT22;9146;48.074;11.968;2024-03-22T15:36:18;16.90;99.90
18043;DHT22;9146;48.074;11.968;2024-03-22T15:38:45;16.90;99.90